createdAt,value
2018-12-30T00:00:24.396Z,984.3
2018-12-30T00:01:25.725Z,984.3
2018-12-30T00:02:27.295Z,984.3
2018-12-30T00:03:29.147Z,984.3
2018-12-30T00:04:31.217Z,984.3
2018-12-30T00:05:33.111Z,984.4
2018-12-30T00:06:34.760Z,984.4
2018-12-30T00:07:36.297Z,984.5
2018-12-30T00:08:37.600Z,984.5
2018-12-30T00:09:39.540Z,984.5
2018-12-30T00:10:40.844Z,984.7
2018-12-30T00:11:42.149Z,984.6
2018-12-30T00:12:43.765Z,984.7
2018-12-30T00:13:45.452Z,984.6
2018-12-30T00:14:46.764Z,984.6
2018-12-30T00:15:48.329Z,984.6
2018-12-30T00:16:49.590Z,984.6
2018-12-30T00:17:51.089Z,984.7
2018-12-30T00:18:52.599Z,984.7
2018-12-30T00:19:53.887Z,984.8
2018-12-30T00:20:55.212Z,984.7
2018-12-30T00:21:56.950Z,984.7
2018-12-30T00:22:58.593Z,984.7
2018-12-30T00:23:59.934Z,984.7
2018-12-30T00:25:01.233Z,984.7
2018-12-30T00:26:04.138Z,984.7
2018-12-30T00:27:05.427Z,984.7
2018-12-30T00:28:06.714Z,984.7
2018-12-30T00:29:13.108Z,984.7
2018-12-30T00:30:14.815Z,984.6
2018-12-30T00:31:16.177Z,984.7
2018-12-30T00:32:17.433Z,984.6
2018-12-30T00:33:19.364Z,984.6
2018-12-30T00:34:21.267Z,984.6
2018-12-30T00:35:25.362Z,984.6
2018-12-30T00:36:27.072Z,984.6
2018-12-30T00:37:28.588Z,984.7
2018-12-30T00:38:31.347Z,984.7
2018-12-30T00:39:35.118Z,984.7
2018-12-30T00:40:36.440Z,984.7
2018-12-30T00:41:37.737Z,984.7
2018-12-30T00:42:39.033Z,984.6
2018-12-30T00:43:40.299Z,984.7
2018-12-30T00:44:42.024Z,984.8
2018-12-30T00:45:43.671Z,984.7
2018-12-30T00:46:44.972Z,984.8
2018-12-30T00:47:46.243Z,984.7
2018-12-30T00:48:47.512Z,984.7
2018-12-30T00:49:48.861Z,984.8
2018-12-30T00:50:50.145Z,984.8
2018-12-30T00:51:56.287Z,984.8
2018-12-30T00:52:57.796Z,984.7
2018-12-30T00:53:59.075Z,984.8
2018-12-30T00:55:00.623Z,984.7
2018-12-30T00:56:03.311Z,984.8
2018-12-30T00:57:05.047Z,984.8
2018-12-30T00:58:06.782Z,984.8
2018-12-30T00:59:08.043Z,984.8
2018-12-30T01:00:11.711Z,984.9
2018-12-30T01:01:12.984Z,984.9
2018-12-30T01:02:14.285Z,985
2018-12-30T01:03:15.552Z,985
2018-12-30T01:04:16.849Z,985
2018-12-30T01:05:18.168Z,985
2018-12-30T01:06:19.872Z,985.1
2018-12-30T01:07:21.386Z,985
2018-12-30T01:08:22.705Z,985
2018-12-30T01:09:24.330Z,985.1
2018-12-30T01:10:25.697Z,985.2
2018-12-30T01:11:27.008Z,985.2
2018-12-30T01:12:28.340Z,985.2
2018-12-30T01:13:29.659Z,985.2
2018-12-30T01:14:30.953Z,985.2
2018-12-30T01:15:32.327Z,985.2
2018-12-30T01:16:34.103Z,985.3
2018-12-30T01:17:35.664Z,985.3
2018-12-30T01:18:36.972Z,985.3
2018-12-30T01:19:38.272Z,985.4
2018-12-30T01:20:39.636Z,985.3
2018-12-30T01:21:41.013Z,985.3
2018-12-30T01:22:42.297Z,985.3
2018-12-30T01:23:43.609Z,985.2
2018-12-30T01:24:44.929Z,985.3
2018-12-30T01:25:46.285Z,985.2
2018-12-30T01:26:47.904Z,985.1
2018-12-30T01:27:49.659Z,985.4
2018-12-30T01:28:50.972Z,985.4
2018-12-30T01:29:52.302Z,985.4
2018-12-30T01:30:53.672Z,985.4
2018-12-30T01:31:55.311Z,985.5
2018-12-30T01:32:56.677Z,985.6
2018-12-30T01:33:57.997Z,985.5
2018-12-30T01:34:59.301Z,985.5
2018-12-30T01:36:00.616Z,985.5
2018-12-30T01:37:11.214Z,985.6
2018-12-30T01:38:13.076Z,985.6
2018-12-30T01:39:15.924Z,985.6
2018-12-30T01:40:17.583Z,985.5
2018-12-30T01:41:18.998Z,985.7
2018-12-30T01:42:20.310Z,985.6
2018-12-30T01:43:21.676Z,985.7
2018-12-30T01:44:23.733Z,985.7
2018-12-30T01:45:25.013Z,985.7
2018-12-30T01:46:26.406Z,985.8
2018-12-30T01:47:27.724Z,985.8
2018-12-30T01:48:29.046Z,985.8
2018-12-30T01:49:30.650Z,985.7
2018-12-30T01:50:32.198Z,985.9
2018-12-30T01:51:35.384Z,985.9
2018-12-30T01:52:36.741Z,985.9
2018-12-30T01:53:38.086Z,986
2018-12-30T01:54:39.409Z,985.9
2018-12-30T01:55:40.691Z,986
2018-12-30T01:56:42.278Z,986
2018-12-30T01:57:43.666Z,986.1
2018-12-30T01:58:44.950Z,986
2018-12-30T01:59:46.285Z,986
2018-12-30T02:00:47.604Z,986.1
2018-12-30T02:01:49.323Z,986.2
2018-12-30T02:02:53.322Z,986.1
2018-12-30T02:03:54.637Z,986.2
2018-12-30T02:05:01.068Z,986.2
2018-12-30T02:06:02.380Z,986.2
2018-12-30T02:07:03.728Z,986.3
2018-12-30T02:08:05.034Z,986
2018-12-30T02:09:06.668Z,986.3
2018-12-30T02:10:07.951Z,986.3
2018-12-30T02:11:09.266Z,986.3
2018-12-30T02:12:10.696Z,986.4
2018-12-30T02:13:12.305Z,986.3
2018-12-30T02:14:13.903Z,986.4
2018-12-30T02:15:15.204Z,986.4
2018-12-30T02:16:16.487Z,986.3
2018-12-30T02:17:17.806Z,986.5
2018-12-30T02:18:19.093Z,986.5
2018-12-30T02:19:20.406Z,986.6
2018-12-30T02:20:21.905Z,986.7
2018-12-30T02:21:23.294Z,986.7
2018-12-30T02:22:24.627Z,986.7
2018-12-30T02:23:26.258Z,986.7
2018-12-30T02:24:27.820Z,986.6
2018-12-30T02:25:29.104Z,986.6
2018-12-30T02:26:30.385Z,986.7
2018-12-30T02:27:31.708Z,986.8
2018-12-30T02:28:33.004Z,986.8
2018-12-30T02:29:34.356Z,986.8
2018-12-30T02:30:35.652Z,986.9
2018-12-30T02:31:36.962Z,986.8
2018-12-30T02:32:38.302Z,986.8
2018-12-30T02:33:39.747Z,986.9
2018-12-30T02:34:41.364Z,986.9
2018-12-30T02:35:42.877Z,986.9
2018-12-30T02:36:44.180Z,986.9
2018-12-30T02:37:45.537Z,986.9
2018-12-30T02:38:46.820Z,986.8
2018-12-30T02:39:48.117Z,986.9
2018-12-30T02:40:49.426Z,987.1
2018-12-30T02:41:50.746Z,987
2018-12-30T02:42:52.080Z,987.1
2018-12-30T02:43:53.374Z,987.1
2018-12-30T02:44:54.909Z,987.1
2018-12-30T02:45:56.364Z,987
2018-12-30T02:46:57.969Z,987.1
2018-12-30T02:47:59.305Z,987.1
2018-12-30T02:49:00.610Z,987.1
2018-12-30T02:50:01.992Z,987.1
2018-12-30T02:51:03.345Z,987.1
2018-12-30T02:52:04.672Z,987.2
2018-12-30T02:53:06.005Z,987.2
2018-12-30T02:54:07.313Z,987.2
2018-12-30T02:55:08.620Z,987.2
2018-12-30T02:56:09.994Z,987.3
2018-12-30T02:57:11.513Z,987.3
2018-12-30T02:58:12.876Z,987.2
2018-12-30T02:59:14.140Z,987.5
2018-12-30T03:00:15.435Z,987.5
2018-12-30T03:01:16.738Z,987.5
2018-12-30T03:02:18.025Z,987.6
2018-12-30T03:03:19.415Z,987.6
2018-12-30T03:04:21.093Z,987.3
2018-12-30T03:05:22.402Z,987.6
2018-12-30T03:06:23.697Z,987.6
2018-12-30T03:07:25.218Z,987.7
2018-12-30T03:08:26.541Z,987.6
2018-12-30T03:09:28.232Z,987.6
2018-12-30T03:10:29.561Z,987.7
2018-12-30T03:11:30.870Z,987.6
2018-12-30T03:12:32.160Z,987.6
2018-12-30T03:13:33.498Z,987.7
2018-12-30T03:14:34.912Z,987.5
2018-12-30T03:15:36.210Z,987.6
2018-12-30T03:16:37.513Z,987.6
2018-12-30T03:17:38.795Z,987.7
2018-12-30T03:18:40.121Z,987.7
2018-12-30T03:19:41.769Z,987.6
2018-12-30T03:20:43.442Z,987.7
2018-12-30T03:21:44.733Z,987.7
2018-12-30T03:22:46.018Z,987.7
2018-12-30T03:23:47.325Z,987.8
2018-12-30T03:24:48.611Z,987.6
2018-12-30T03:25:54.102Z,987.7
2018-12-30T03:26:55.360Z,987.8
2018-12-30T03:27:56.636Z,987.8
2018-12-30T03:28:57.969Z,987.8
2018-12-30T03:29:59.279Z,987.9
2018-12-30T03:31:00.553Z,988
2018-12-30T03:32:01.842Z,988
2018-12-30T03:33:03.246Z,987.9
2018-12-30T03:34:04.555Z,988
2018-12-30T03:35:05.852Z,988
2018-12-30T03:36:07.113Z,988
2018-12-30T03:37:08.392Z,988.1
2018-12-30T03:38:09.665Z,988.1
2018-12-30T03:39:11.152Z,988.1
2018-12-30T03:40:12.413Z,988.1
2018-12-30T03:41:13.701Z,988.1
2018-12-30T03:42:14.984Z,988.2
2018-12-30T03:43:16.289Z,988.2
2018-12-30T03:44:17.602Z,988.1
2018-12-30T03:45:18.872Z,988.2
2018-12-30T03:46:20.142Z,988.2
2018-12-30T03:47:21.479Z,988.2
2018-12-30T03:48:22.737Z,988.2
2018-12-30T03:49:24.037Z,988.2
2018-12-30T03:50:25.305Z,988.2
2018-12-30T03:51:26.582Z,988.3
2018-12-30T03:52:27.856Z,988.3
2018-12-30T03:53:29.162Z,988.4
2018-12-30T03:54:30.474Z,988.4
2018-12-30T03:55:31.772Z,988.4
2018-12-30T03:56:33.096Z,988.4
2018-12-30T03:57:34.369Z,988.4
2018-12-30T03:58:35.660Z,988.6
2018-12-30T03:59:37.360Z,988.5
2018-12-30T04:00:38.920Z,988.5
2018-12-30T04:01:40.244Z,988.5
2018-12-30T04:02:42.904Z,988.3
2018-12-30T04:03:44.168Z,988.6
2018-12-30T04:04:45.452Z,988.5
2018-12-30T04:05:46.728Z,988.5
2018-12-30T04:06:48.005Z,988.5
2018-12-30T04:07:49.275Z,988.6
2018-12-30T04:08:50.536Z,988.6
2018-12-30T04:09:51.852Z,988.6
2018-12-30T04:10:53.136Z,988.5
2018-12-30T04:11:54.438Z,988.7
2018-12-30T04:12:55.713Z,988.6
2018-12-30T04:13:57.004Z,988.6
2018-12-30T04:14:58.605Z,988.6
2018-12-30T04:15:59.885Z,988.8
2018-12-30T04:17:01.164Z,988.7
2018-12-30T04:18:05.245Z,988.7
2018-12-30T04:19:06.519Z,988.7
2018-12-30T04:20:07.848Z,988.7
2018-12-30T04:21:09.164Z,988.8
2018-12-30T04:22:17.633Z,988.8
2018-12-30T04:23:19.029Z,988.9
2018-12-30T04:24:20.308Z,988.9
2018-12-30T04:25:21.672Z,988.9
2018-12-30T04:26:23.089Z,988.8
2018-12-30T04:27:24.384Z,989
2018-12-30T04:28:25.685Z,989
2018-12-30T04:29:26.957Z,988.9
2018-12-30T04:30:28.282Z,988.9
2018-12-30T04:31:29.604Z,988.9
2018-12-30T04:32:30.909Z,989
2018-12-30T04:33:32.192Z,988.9
2018-12-30T04:34:33.455Z,988.9
2018-12-30T04:35:34.778Z,988.9
2018-12-30T04:36:36.044Z,988.9
2018-12-30T04:37:37.329Z,989
2018-12-30T04:38:38.616Z,988.9
2018-12-30T04:39:39.888Z,989
2018-12-30T04:40:41.216Z,989
2018-12-30T04:41:42.487Z,989
2018-12-30T04:42:43.748Z,989
2018-12-30T04:43:45.022Z,989
2018-12-30T04:44:46.305Z,989
2018-12-30T04:45:47.643Z,989
2018-12-30T04:46:49.331Z,989.1
2018-12-30T04:47:51.684Z,989.1
2018-12-30T04:48:52.940Z,989.2
2018-12-30T04:49:54.201Z,989.1
2018-12-30T04:50:55.511Z,989.1
2018-12-30T04:51:56.772Z,989.1
2018-12-30T04:52:58.058Z,989.2
2018-12-30T04:53:59.651Z,989.1
2018-12-30T04:55:00.953Z,989.2
2018-12-30T04:56:02.299Z,989.2
2018-12-30T04:57:03.598Z,989.2
2018-12-30T04:58:04.876Z,989.3
2018-12-30T04:59:06.174Z,989.2
2018-12-30T05:00:07.457Z,989.2
2018-12-30T05:01:08.808Z,989.3
2018-12-30T05:02:10.101Z,989.3
2018-12-30T05:03:11.399Z,989.4
2018-12-30T05:04:12.683Z,989.4
2018-12-30T05:05:13.958Z,989.5
2018-12-30T05:06:15.285Z,989.4
2018-12-30T05:07:16.575Z,989.2
2018-12-30T05:08:17.852Z,989.4
2018-12-30T05:09:19.138Z,989.2
2018-12-30T05:10:20.417Z,989.5
2018-12-30T05:11:21.737Z,989.4
2018-12-30T05:12:23.018Z,989.5
2018-12-30T05:13:24.301Z,989.5
2018-12-30T05:14:25.618Z,989.5
2018-12-30T05:15:26.892Z,989.5
2018-12-30T05:16:28.218Z,989.6
2018-12-30T05:17:29.600Z,989.5
2018-12-30T05:18:30.875Z,989.6
2018-12-30T05:19:32.153Z,989.5
2018-12-30T05:20:33.428Z,989.5
2018-12-30T05:21:34.764Z,989.5
2018-12-30T05:22:36.051Z,989.6
2018-12-30T05:23:37.367Z,989.6
2018-12-30T05:24:38.634Z,989.7
2018-12-30T05:25:39.905Z,989.6
2018-12-30T05:26:41.330Z,989.6
2018-12-30T05:27:42.613Z,989.6
2018-12-30T05:28:43.900Z,989.7
2018-12-30T05:29:45.176Z,989.6
2018-12-30T05:30:46.445Z,989.5
2018-12-30T05:31:47.777Z,989.7
2018-12-30T05:32:49.045Z,989.8
2018-12-30T05:33:51.736Z,989.7
2018-12-30T05:34:53.106Z,989.8
2018-12-30T05:35:54.400Z,989.8
2018-12-30T05:36:55.699Z,989.8
2018-12-30T05:37:56.965Z,989.9
2018-12-30T05:38:58.240Z,989.9
2018-12-30T05:39:59.499Z,990
2018-12-30T05:41:00.767Z,990
2018-12-30T05:42:02.131Z,989.9
2018-12-30T05:43:03.422Z,989.9
2018-12-30T05:44:04.688Z,990
2018-12-30T05:45:05.965Z,990
2018-12-30T05:46:07.250Z,990
2018-12-30T05:47:08.571Z,990
2018-12-30T05:48:09.833Z,990
2018-12-30T05:49:11.114Z,990
2018-12-30T05:50:12.372Z,990
2018-12-30T05:51:13.642Z,990
2018-12-30T05:52:14.947Z,990.1
2018-12-30T05:53:16.213Z,990.1
2018-12-30T05:54:17.468Z,990.1
2018-12-30T05:55:18.758Z,990.1
2018-12-30T05:56:20.045Z,990.1
2018-12-30T05:57:21.583Z,990.1
2018-12-30T05:58:22.853Z,990.2
2018-12-30T05:59:24.135Z,990
2018-12-30T06:00:25.416Z,990.2
2018-12-30T06:01:26.706Z,990.2
2018-12-30T06:02:28.020Z,990.1
2018-12-30T06:03:29.296Z,990.3
2018-12-30T06:04:30.555Z,990.2
2018-12-30T06:05:31.869Z,990.2
2018-12-30T06:06:33.164Z,990.3
2018-12-30T06:07:34.499Z,990.3
2018-12-30T06:08:35.767Z,990.3
2018-12-30T06:09:37.035Z,990.3
2018-12-30T06:10:38.321Z,990.2
2018-12-30T06:11:39.565Z,990.3
2018-12-30T06:12:40.853Z,990.3
2018-12-30T06:13:42.142Z,990.2
2018-12-30T06:14:43.438Z,990.3
2018-12-30T06:15:44.737Z,990.4
2018-12-30T06:16:46.014Z,990.4
2018-12-30T06:17:47.327Z,990.4
2018-12-30T06:18:48.587Z,990.3
2018-12-30T06:19:49.865Z,990.4
2018-12-30T06:20:51.157Z,990.4
2018-12-30T06:21:52.438Z,990.3
2018-12-30T06:22:53.772Z,990.3
2018-12-30T06:23:55.043Z,990.4
2018-12-30T06:24:56.308Z,990.4
2018-12-30T06:25:57.636Z,990.4
2018-12-30T06:26:58.905Z,990.3
2018-12-30T06:28:00.286Z,990.4
2018-12-30T06:29:01.549Z,990.4
2018-12-30T06:30:02.981Z,990.5
2018-12-30T06:31:04.252Z,990.5
2018-12-30T06:32:05.541Z,990.5
2018-12-30T06:33:08.794Z,990.4
2018-12-30T06:34:10.073Z,990.6
2018-12-30T06:35:11.354Z,990.5
2018-12-30T06:36:12.920Z,990.7
2018-12-30T06:37:14.180Z,990.6
2018-12-30T06:38:15.491Z,990.6
2018-12-30T06:39:16.788Z,990.6
2018-12-30T06:40:18.054Z,990.5
2018-12-30T06:41:19.596Z,990.6
2018-12-30T06:42:20.860Z,990.7
2018-12-30T06:43:22.152Z,990.7
2018-12-30T06:44:23.416Z,990.6
2018-12-30T06:45:24.676Z,990.6
2018-12-30T06:46:26.033Z,990.7
2018-12-30T06:47:27.300Z,990.7
2018-12-30T06:48:28.916Z,990.7
2018-12-30T06:49:30.182Z,990.7
2018-12-30T06:50:36.444Z,990.9
2018-12-30T06:51:37.720Z,990.8
2018-12-30T06:52:39.008Z,990.8
2018-12-30T06:53:40.355Z,990.8
2018-12-30T06:54:41.757Z,990.8
2018-12-30T06:55:43.041Z,990.7
2018-12-30T06:56:44.330Z,990.8
2018-12-30T06:57:45.606Z,990.8
2018-12-30T06:58:49.310Z,990.8
2018-12-30T06:59:50.576Z,990.9
2018-12-30T07:00:51.870Z,990.6
2018-12-30T07:01:53.142Z,990.8
2018-12-30T07:02:54.416Z,990.9
2018-12-30T07:03:55.733Z,990.8
2018-12-30T07:04:56.993Z,990.9
2018-12-30T07:05:58.273Z,990.8
2018-12-30T07:06:59.554Z,990.8
2018-12-30T07:08:00.829Z,990.9
2018-12-30T07:09:02.186Z,990.8
2018-12-30T07:10:03.492Z,990.8
2018-12-30T07:11:04.978Z,990.8
2018-12-30T07:12:06.936Z,990.9
2018-12-30T07:13:08.245Z,990.9
2018-12-30T07:14:09.559Z,990.9
2018-12-30T07:15:10.834Z,991
2018-12-30T07:16:12.108Z,991
2018-12-30T07:17:13.390Z,991
2018-12-30T07:18:14.644Z,990.9
2018-12-30T07:19:16.313Z,991
2018-12-30T07:20:17.608Z,991
2018-12-30T07:21:18.868Z,991
2018-12-30T07:22:22.485Z,991
2018-12-30T07:23:23.835Z,991
2018-12-30T07:24:25.249Z,991.1
2018-12-30T07:25:26.507Z,991.1
2018-12-30T07:26:27.789Z,991.1
2018-12-30T07:27:29.070Z,991.1
2018-12-30T07:28:30.349Z,991.1
2018-12-30T07:29:31.750Z,991.1
2018-12-30T07:30:33.812Z,991.1
2018-12-30T07:31:35.088Z,991
2018-12-30T07:32:36.363Z,991
2018-12-30T07:33:37.660Z,991.1
2018-12-30T07:34:38.988Z,991.1
2018-12-30T07:35:40.269Z,991
2018-12-30T07:36:41.564Z,991.2
2018-12-30T07:37:42.836Z,991.1
2018-12-30T07:38:44.101Z,991.1
2018-12-30T07:39:45.405Z,991.1
2018-12-30T07:40:46.680Z,991.1
2018-12-30T07:41:47.968Z,991.2
2018-12-30T07:42:49.240Z,991.3
2018-12-30T07:43:50.508Z,991.2
2018-12-30T07:44:51.976Z,991.2
2018-12-30T07:45:53.267Z,991.3
2018-12-30T07:46:55.591Z,991.3
2018-12-30T07:47:56.861Z,991.3
2018-12-30T07:48:58.144Z,991.3
2018-12-30T07:49:59.637Z,991.4
2018-12-30T07:51:00.939Z,991.4
2018-12-30T07:52:02.226Z,991.4
2018-12-30T07:53:03.551Z,991.3
2018-12-30T07:54:04.866Z,991.4
2018-12-30T07:55:06.182Z,991.4
2018-12-30T07:56:07.453Z,991.4
2018-12-30T07:57:08.741Z,991.4
2018-12-30T07:58:10.025Z,991.4
2018-12-30T07:59:11.763Z,991.4
2018-12-30T08:00:13.588Z,991.4
2018-12-30T08:01:14.885Z,991.5
2018-12-30T08:02:16.485Z,991.5
2018-12-30T08:03:17.764Z,991.5
2018-12-30T08:04:19.333Z,991.5
2018-12-30T08:05:20.695Z,991.5
2018-12-30T08:06:22.225Z,991.5
2018-12-30T08:07:23.589Z,991.6
2018-12-30T08:08:25.178Z,991.6
2018-12-30T08:09:26.483Z,991.6
2018-12-30T08:10:27.804Z,991.6
2018-12-30T08:11:29.098Z,991.7
2018-12-30T08:12:30.385Z,991.6
2018-12-30T08:13:31.898Z,991.7
2018-12-30T08:14:33.162Z,991.6
2018-12-30T08:15:34.476Z,991.6
2018-12-30T08:16:38.009Z,991.6
2018-12-30T08:17:39.301Z,991.5
2018-12-30T08:18:40.555Z,991.6
2018-12-30T08:19:41.840Z,991.6
2018-12-30T08:20:43.394Z,991.5
2018-12-30T08:21:44.670Z,991.6
2018-12-30T08:22:45.949Z,991.6
2018-12-30T08:23:47.230Z,991.6
2018-12-30T08:24:48.545Z,991.7
2018-12-30T08:25:49.841Z,991.7
2018-12-30T08:26:51.121Z,991.7
2018-12-30T08:27:52.396Z,991.7
2018-12-30T08:28:53.670Z,991.7
2018-12-30T08:29:54.948Z,991.7
2018-12-30T08:30:56.269Z,991.8
2018-12-30T08:31:58.873Z,991.8
2018-12-30T08:33:00.164Z,991.8
2018-12-30T08:34:01.688Z,991.8
2018-12-30T08:35:02.945Z,991.8
2018-12-30T08:36:04.275Z,991.8
2018-12-30T08:37:05.559Z,991.8
2018-12-30T08:38:06.864Z,992
2018-12-30T08:39:08.601Z,991.9
2018-12-30T08:40:09.873Z,991.9
2018-12-30T08:41:11.160Z,991.9
2018-12-30T08:42:12.451Z,992
2018-12-30T08:43:13.757Z,992
2018-12-30T08:44:15.037Z,992
2018-12-30T08:45:17.290Z,992.1
2018-12-30T08:46:18.592Z,992.1
2018-12-30T08:47:19.877Z,992.1
2018-12-30T08:48:21.182Z,992.1
2018-12-30T08:49:22.476Z,992.1
2018-12-30T08:50:23.757Z,992.1
2018-12-30T08:51:25.082Z,992.1
2018-12-30T08:52:26.356Z,992.2
2018-12-30T08:53:30.252Z,992.2
2018-12-30T08:54:33.546Z,992.2
2018-12-30T08:55:34.818Z,992.3
2018-12-30T08:56:36.495Z,992.3
2018-12-30T08:57:37.825Z,992.3
2018-12-30T08:58:39.141Z,992.3
2018-12-30T08:59:40.627Z,992.2
2018-12-30T09:00:41.930Z,992.2
2018-12-30T09:01:43.243Z,992.3
2018-12-30T09:02:45.641Z,992.2
2018-12-30T09:03:46.950Z,992.3
2018-12-30T09:04:48.229Z,992.3
2018-12-30T09:05:50.907Z,992.3
2018-12-30T09:06:52.885Z,992.3
2018-12-30T09:07:54.178Z,992.3
2018-12-30T09:08:55.474Z,992.3
2018-12-30T09:09:56.930Z,992.3
2018-12-30T09:10:58.212Z,992.3
2018-12-30T09:11:59.517Z,992.3
2018-12-30T09:13:00.777Z,992.2
2018-12-30T09:14:02.092Z,992.3
2018-12-30T09:15:03.385Z,992.4
2018-12-30T09:16:04.668Z,992.4
2018-12-30T09:17:09.385Z,992.3
2018-12-30T09:18:10.674Z,992.3
2018-12-30T09:19:12.232Z,992.4
2018-12-30T09:20:13.501Z,992.4
2018-12-30T09:21:14.786Z,992.4
2018-12-30T09:22:16.111Z,992.4
2018-12-30T09:23:19.213Z,992.5
2018-12-30T09:24:20.651Z,992.4
2018-12-30T09:25:21.926Z,992.5
2018-12-30T09:26:23.217Z,992.5
2018-12-30T09:27:24.921Z,992.5
2018-12-30T09:28:26.282Z,992.5
2018-12-30T09:29:28.845Z,992.5
2018-12-30T09:30:31.487Z,992.5
2018-12-30T09:31:32.765Z,992.4
2018-12-30T09:32:34.075Z,992.5
2018-12-30T09:33:35.628Z,992.5
2018-12-30T09:34:36.907Z,992.6
2018-12-30T09:35:38.205Z,992.5
2018-12-30T09:36:39.547Z,992.5
2018-12-30T09:37:41.074Z,992.5
2018-12-30T09:38:42.801Z,992.6
2018-12-30T09:39:44.108Z,992.6
2018-12-30T09:40:45.371Z,992.6
2018-12-30T09:41:46.642Z,992.4
2018-12-30T09:42:48.289Z,992.5
2018-12-30T09:43:49.692Z,992.6
2018-12-30T09:44:52.089Z,992.6
2018-12-30T09:45:56.368Z,992.6
2018-12-30T09:46:57.670Z,992.6
2018-12-30T09:47:59.018Z,992.6
2018-12-30T09:49:00.600Z,992.6
2018-12-30T09:50:03.399Z,992.6
2018-12-30T09:51:04.677Z,992.7
2018-12-30T09:52:05.985Z,992.6
2018-12-30T09:53:10.339Z,992.6
2018-12-30T09:54:11.677Z,992.6
2018-12-30T09:55:12.968Z,992.5
2018-12-30T09:56:14.236Z,992.6
2018-12-30T09:57:15.512Z,992.6
2018-12-30T09:58:16.833Z,992.6
2018-12-30T09:59:18.155Z,992.7
2018-12-30T10:00:19.461Z,992.6
2018-12-30T10:01:20.837Z,992.6
2018-12-30T10:02:28.134Z,992.6
2018-12-30T10:03:30.763Z,992.7
2018-12-30T10:04:32.124Z,992.7
2018-12-30T10:05:33.816Z,992.8
2018-12-30T10:06:35.128Z,992.7
2018-12-30T10:07:36.435Z,992.7
2018-12-30T10:08:37.782Z,992.8
2018-12-30T10:09:39.088Z,992.7
2018-12-30T10:10:40.682Z,992.7
2018-12-30T10:11:42.302Z,992.8
2018-12-30T10:12:43.622Z,992.7
2018-12-30T10:13:44.959Z,992.7
2018-12-30T10:14:46.324Z,992.8
2018-12-30T10:15:47.625Z,992.7
2018-12-30T10:16:49.038Z,992.6
2018-12-30T10:17:51.385Z,992.7
2018-12-30T10:18:52.736Z,992.7
2018-12-30T10:19:54.515Z,992.7
2018-12-30T10:20:55.942Z,992.7
2018-12-30T10:21:57.234Z,992.7
2018-12-30T10:22:59.773Z,992.8
2018-12-30T10:24:01.347Z,992.8
2018-12-30T10:25:02.981Z,992.7
2018-12-30T10:26:04.257Z,992.8
2018-12-30T10:27:05.653Z,992.8
2018-12-30T10:28:06.963Z,992.7
2018-12-30T10:29:08.301Z,992.8
2018-12-30T10:30:09.585Z,992.8
2018-12-30T10:31:12.047Z,992.8
2018-12-30T10:32:13.569Z,992.8
2018-12-30T10:33:14.876Z,992.8
2018-12-30T10:34:16.354Z,992.8
2018-12-30T10:35:20.216Z,992.7
2018-12-30T10:36:25.705Z,992.9
2018-12-30T10:37:28.769Z,992.8
2018-12-30T10:38:32.804Z,992.8
2018-12-30T10:39:34.308Z,992.8
2018-12-30T10:40:35.614Z,992.8
2018-12-30T10:41:38.837Z,992.8
2018-12-30T10:42:42.470Z,992.8
2018-12-30T10:43:44.300Z,992.8
2018-12-30T10:44:46.178Z,992.8
2018-12-30T10:45:47.460Z,992.9
2018-12-30T10:46:52.294Z,992.9
2018-12-30T10:47:53.946Z,993
2018-12-30T10:48:55.236Z,992.9
2018-12-30T10:49:56.561Z,993
2018-12-30T10:50:57.858Z,992.9
2018-12-30T10:51:59.146Z,992.9
2018-12-30T10:53:00.437Z,992.9
2018-12-30T10:54:01.737Z,992.8
2018-12-30T10:55:03.085Z,992.8
2018-12-30T10:56:04.367Z,992.7
2018-12-30T10:57:05.636Z,992.7
2018-12-30T10:58:06.935Z,992.7
2018-12-30T10:59:08.276Z,992.6
2018-12-30T11:00:09.589Z,992.6
2018-12-30T11:01:11.728Z,992.6
2018-12-30T11:02:12.988Z,992.6
2018-12-30T11:03:14.319Z,992.6
2018-12-30T11:04:15.619Z,992.5
2018-12-30T11:05:16.968Z,992.6
2018-12-30T11:06:18.279Z,992.5
2018-12-30T11:07:19.597Z,992.5
2018-12-30T11:08:20.884Z,992.5
2018-12-30T11:09:28.292Z,992.6
2018-12-30T11:10:29.633Z,992.6
2018-12-30T11:11:33.933Z,992.7
2018-12-30T11:12:38.245Z,992.5
2018-12-30T11:13:39.567Z,992.5
2018-12-30T11:14:40.914Z,992.4
2018-12-30T11:15:42.240Z,992.4
2018-12-30T11:16:43.548Z,992.4
2018-12-30T11:17:44.825Z,992.4
2018-12-30T11:18:46.329Z,992.4
2018-12-30T11:19:47.654Z,992.3
2018-12-30T11:20:49.540Z,992.4
2018-12-30T11:21:51.749Z,992.4
2018-12-30T11:22:53.644Z,992.3
2018-12-30T11:23:55.017Z,992.2
2018-12-30T11:24:56.658Z,992.3
2018-12-30T11:25:59.509Z,992.2
2018-12-30T11:27:00.808Z,992.3
2018-12-30T11:28:02.110Z,992.3
2018-12-30T11:29:03.418Z,992.3
2018-12-30T11:30:06.242Z,992.3
2018-12-30T11:31:07.583Z,992.2
2018-12-30T11:32:08.897Z,992.3
2018-12-30T11:33:10.188Z,992.2
2018-12-30T11:34:12.281Z,992.3
2018-12-30T11:35:14.303Z,992.3
2018-12-30T11:36:17.497Z,992.3
2018-12-30T11:37:19.003Z,992.2
2018-12-30T11:38:20.300Z,992.2
2018-12-30T11:39:21.640Z,992.3
2018-12-30T11:40:22.956Z,992.2
2018-12-30T11:41:24.353Z,992.2
2018-12-30T11:42:25.683Z,992.2
2018-12-30T11:43:27.295Z,992.2
2018-12-30T11:44:29.928Z,992.2
2018-12-30T11:45:34.018Z,992.2
2018-12-30T11:46:35.304Z,992.2
2018-12-30T11:47:36.593Z,992.2
2018-12-30T11:48:37.875Z,992.2
2018-12-30T11:49:39.196Z,992.1
2018-12-30T11:50:40.500Z,992.2
2018-12-30T11:51:42.249Z,992.2
2018-12-30T11:52:43.590Z,992.2
2018-12-30T11:53:44.943Z,992.3
2018-12-30T11:54:46.329Z,992.3
2018-12-30T11:55:47.604Z,992.3
2018-12-30T11:56:49.304Z,992.3
2018-12-30T11:57:50.581Z,992.3
2018-12-30T11:58:51.862Z,992.2
2018-12-30T11:59:53.369Z,992.4
2018-12-30T12:00:56.360Z,992.3
2018-12-30T12:02:00.746Z,992.3
2018-12-30T12:03:06.908Z,992.2
2018-12-30T12:04:08.191Z,992.2
2018-12-30T12:05:09.749Z,992.3
2018-12-30T12:06:11.032Z,992.3
2018-12-30T12:07:20.344Z,992.3
2018-12-30T12:08:21.647Z,992.3
2018-12-30T12:09:23.564Z,992.2
2018-12-30T12:10:27.689Z,992.2
2018-12-30T12:11:29.289Z,992.2
2018-12-30T12:12:31.542Z,992.2
2018-12-30T12:13:32.859Z,992.3
2018-12-30T12:14:34.310Z,992.3
2018-12-30T12:15:35.599Z,992.3
2018-12-30T12:16:38.281Z,992.3
2018-12-30T12:17:39.648Z,992.3
2018-12-30T12:18:42.525Z,992.3
2018-12-30T12:19:43.813Z,992.2
2018-12-30T12:20:45.138Z,992.2
2018-12-30T12:21:46.422Z,992.1
2018-12-30T12:22:48.089Z,992.1
2018-12-30T12:23:52.956Z,992.1
2018-12-30T12:24:54.240Z,992.2
2018-12-30T12:25:55.574Z,992.1
2018-12-30T12:26:56.852Z,992.1
2018-12-30T12:27:58.207Z,992.2
2018-12-30T12:28:59.567Z,992.1
2018-12-30T12:30:01.847Z,992.2
2018-12-30T12:31:03.409Z,992.2
2018-12-30T12:32:04.681Z,992.2
2018-12-30T12:33:06.016Z,992.3
2018-12-30T12:34:07.324Z,992.3
2018-12-30T12:35:08.609Z,992.2
2018-12-30T12:36:09.895Z,992.3
2018-12-30T12:37:11.627Z,992.2
2018-12-30T12:38:16.432Z,992.3
2018-12-30T12:39:17.801Z,992.2
2018-12-30T12:40:19.100Z,992.3
2018-12-30T12:41:20.465Z,992.2
2018-12-30T12:42:21.767Z,992.2
2018-12-30T12:43:23.113Z,992.3
2018-12-30T12:44:24.536Z,992.3
2018-12-30T12:45:25.818Z,992.3
2018-12-30T12:46:27.152Z,992.2
2018-12-30T12:47:28.770Z,992.3
2018-12-30T12:48:30.324Z,992.3
2018-12-30T12:49:31.628Z,992.3
2018-12-30T12:50:32.945Z,992.3
2018-12-30T12:51:34.268Z,992.4
2018-12-30T12:53:47.116Z,992.4
2018-12-30T12:54:48.386Z,992.5
2018-12-30T12:55:49.797Z,992.3
2018-12-30T12:56:51.363Z,992.4
2018-12-30T12:57:53.197Z,992.4
2018-12-30T12:58:54.551Z,992.5
2018-12-30T12:59:55.846Z,992.4
2018-12-30T13:00:57.132Z,992.4
2018-12-30T13:01:58.584Z,992.4
2018-12-30T13:03:00.287Z,992.5
2018-12-30T13:04:01.847Z,992.4
2018-12-30T13:05:03.105Z,992.5
2018-12-30T13:06:04.369Z,992.5
2018-12-30T13:07:05.733Z,992.5
2018-12-30T13:08:07.873Z,992.5
2018-12-30T13:09:09.152Z,992.5
2018-12-30T13:10:10.750Z,992.6
2018-12-30T13:11:12.348Z,992.5
2018-12-30T13:12:13.610Z,992.5
2018-12-30T13:13:14.885Z,992.5
2018-12-30T13:14:19.013Z,992.5
2018-12-30T13:15:20.296Z,992.6
2018-12-30T13:16:21.534Z,992.6
2018-12-30T13:17:22.824Z,992.6
2018-12-30T13:19:38.417Z,992.5